Time;durP1;ratioP1;P1;durP2;ratioP2;P2;SDS_P1;SDS_P2;PMS_P1;PMS_P2;Temp;Humidity;BMP_temperature;BMP_pressure;BME280_temperature;BME280_humidity;BME280_pressure;Samples;Min_cycle;Max_cycle;Signal;HPM_P1;HPM_P2
2022/10/24 00:00:42;;;;;;;54.08;36.80;;;12.30;99.90;;;;;;5096962;28;20068;-69
2022/10/24 00:03:10;;;;;;;56.00;34.80;;;12.30;99.90;;;;;;5078640;28;20052;-69
2022/10/24 00:05:40;;;;;;;58.15;35.78;;;12.30;99.90;;;;;;5102346;28;20487;-69
2022/10/24 00:08:10;;;;;;;55.42;34.47;;;12.20;99.90;;;;;;5104367;28;20055;-70
2022/10/24 00:10:41;;;;;;;56.72;36.65;;;12.30;99.90;;;;;;5102558;28;20586;-70
2022/10/24 00:13:08;;;;;;;58.50;36.00;;;12.20;99.90;;;;;;5101191;28;20036;-69
2022/10/24 00:15:35;;;;;;;49.30;34.25;;;12.20;99.90;;;;;;5096656;28;20068;-70
2022/10/24 00:18:02;;;;;;;56.58;36.97;;;12.20;99.90;;;;;;5096756;28;20060;-70
2022/10/24 00:20:30;;;;;;;51.40;32.90;;;12.20;99.90;;;;;;5096049;28;20078;-68
2022/10/24 00:22:57;;;;;;;54.85;34.15;;;12.20;99.90;;;;;;5096407;28;20055;-69
2022/10/24 00:25:26;;;;;;;50.33;32.47;;;12.20;99.90;;;;;;5097072;28;20068;-70
2022/10/24 00:27:53;;;;;;;45.78;29.52;;;12.10;99.90;;;;;;5096404;28;20127;-70
2022/10/24 00:30:20;;;;;;;47.88;31.35;;;12.10;99.90;;;;;;5095762;28;20033;-67
2022/10/24 00:32:48;;;;;;;47.85;28.80;;;12.10;99.90;;;;;;5095998;28;20139;-68
2022/10/24 00:35:15;;;;;;;44.50;28.55;;;12.10;99.90;;;;;;5096122;28;20119;-69
2022/10/24 00:37:42;;;;;;;43.20;26.05;;;12.00;99.90;;;;;;5095678;28;20068;-68
2022/10/24 00:40:14;;;;;;;43.40;27.77;;;12.00;99.90;;;;;;5095408;28;20470;-70
2022/10/24 00:42:42;;;;;;;43.95;29.60;;;12.00;99.90;;;;;;5096372;28;20040;-70
2022/10/24 00:45:42;;;;;;;47.60;30.25;;;12.10;99.90;;;;;;5097794;28;20040;-68
2022/10/24 00:48:20;;;;;;;46.65;29.25;;;12.00;99.90;;;;;;5090409;28;20087;-70
2022/10/24 00:50:52;;;;;;;48.00;29.80;;;12.00;99.90;;;;;;5096298;28;20071;-70
2022/10/24 00:53:20;;;;;;;45.50;28.73;;;11.90;99.90;;;;;;5096035;28;20123;-69
2022/10/24 00:55:50;;;;;;;51.13;31.05;;;11.90;99.90;;;;;;5097035;28;20067;-68
2022/10/24 00:58:23;;;;;;;43.50;28.08;;;11.90;99.90;;;;;;5097131;28;20063;-68
2022/10/24 01:00:50;;;;;;;42.75;29.13;;;11.90;99.90;;;;;;5095897;28;20071;-68
2022/10/24 01:03:18;;;;;;;50.13;31.08;;;11.80;99.90;;;;;;5094723;28;20047;-70
2022/10/24 01:06:05;;;;;;;48.40;29.80;;;11.80;99.90;;;;;;5094835;28;20048;-69
2022/10/24 01:08:41;;;;;;;48.17;28.75;;;11.80;99.90;;;;;;5087009;28;20130;-69
2022/10/24 01:11:20;;;;;;;42.42;28.98;;;11.80;99.90;;;;;;5094930;28;20078;-68
2022/10/24 01:14:00;;;;;;;45.35;26.98;;;11.70;99.90;;;;;;5094460;28;20479;-70
2022/10/24 01:16:36;;;;;;;46.80;27.88;;;11.70;99.90;;;;;;5094492;28;20038;-69
2022/10/24 01:19:06;;;;;;;;;;;11.60;99.90;;;;;;5094927;28;20074;-69
2022/10/24 01:21:36;;;;;;;41.85;28.58;;;11.70;99.90;;;;;;5094853;28;19927;-70
2022/10/24 01:24:27;;;;;;;44.70;28.13;;;11.60;99.90;;;;;;5094397;28;20048;-70
2022/10/24 01:27:28;;;;;;;41.60;24.85;;;11.60;99.90;;;;;;5094780;28;20040;-68
2022/10/24 01:30:06;;;;;;;40.63;24.60;;;11.70;99.90;;;;;;5071737;28;20097;-69
2022/10/24 01:32:39;;;;;;;39.28;23.52;;;11.70;99.90;;;;;;5075284;28;20028;-66
2022/10/24 01:35:23;;;;;;;39.50;23.90;;;11.70;99.90;;;;;;5094588;28;20126;-68
2022/10/24 01:37:59;;;;;;;39.47;22.58;;;11.60;99.90;;;;;;5100098;28;20384;-66
2022/10/24 01:40:32;;;;;;;34.72;22.42;;;11.60;99.90;;;;;;5095964;28;20060;-66
2022/10/24 01:43:09;;;;;;;35.25;22.15;;;11.60;99.90;;;;;;5094007;28;20131;-66
2022/10/24 01:45:40;;;;;;;36.97;23.23;;;11.50;99.90;;;;;;5086827;28;20043;-67
2022/10/24 01:48:12;;;;;;;45.50;23.27;;;11.50;99.90;;;;;;5093315;28;20555;-68
2022/10/24 01:50:40;;;;;;;42.88;25.38;;;11.40;99.90;;;;;;5093455;28;20063;-68
2022/10/24 01:53:10;;;;;;;37.50;25.30;;;11.40;99.90;;;;;;5097136;28;20054;-68
2022/10/24 01:55:39;;;;;;;39.08;24.77;;;11.40;99.90;;;;;;5096434;28;20122;-67
2022/10/24 01:58:07;;;;;;;37.97;23.70;;;11.40;99.90;;;;;;5094536;28;20082;-66
2022/10/24 02:00:35;;;;;;;40.05;23.73;;;11.40;99.90;;;;;;5094109;28;20089;-67
2022/10/24 02:03:11;;;;;;;40.80;24.13;;;11.40;99.90;;;;;;5075475;28;20068;-66
2022/10/24 02:05:45;;;;;;;47.35;23.67;;;11.40;99.90;;;;;;5093385;28;20044;-67
2022/10/24 02:08:16;;;;;;;39.47;23.98;;;11.40;99.90;;;;;;5075862;28;20044;-66
2022/10/24 02:10:48;;;;;;;38.25;22.65;;;11.40;99.90;;;;;;5093292;28;20111;-68
2022/10/24 02:13:25;;;;;;;42.05;23.20;;;11.40;99.90;;;;;;5093661;28;20043;-66
2022/10/24 02:15:55;;;;;;;41.55;23.92;;;11.30;99.90;;;;;;5093494;28;20071;-67
2022/10/24 02:18:24;;;;;;;43.72;22.63;;;11.30;99.90;;;;;;5093196;28;20063;-65
2022/10/24 02:20:54;;;;;;;39.72;23.15;;;11.30;99.90;;;;;;5093916;28;20115;-66
2022/10/24 02:23:31;;;;;;;40.75;22.58;;;11.20;99.90;;;;;;5092881;28;20517;-67
2022/10/24 02:26:03;;;;;;;40.40;22.65;;;11.20;99.90;;;;;;5094100;28;20071;-66
2022/10/24 02:28:36;;;;;;;38.63;22.40;;;11.20;99.90;;;;;;5075445;28;20149;-67
2022/10/24 02:31:08;;;;;;;36.78;22.13;;;11.20;99.90;;;;;;5093398;28;20493;-67
2022/10/24 02:33:39;;;;;;;36.60;21.25;;;11.20;99.90;;;;;;5093163;28;20078;-67
2022/10/24 02:36:10;;;;;;;30.98;20.95;;;11.20;99.90;;;;;;5093379;28;20044;-66
2022/10/24 02:38:40;;;;;;;35.22;21.52;;;11.20;99.90;;;;;;5092858;28;20090;-68
2022/10/24 02:41:11;;;;;;;36.47;20.13;;;11.20;99.90;;;;;;5093305;28;20076;-66
2022/10/24 02:43:40;;;;;;;34.55;19.08;;;11.20;99.90;;;;;;5095585;28;20503;-65
2022/10/24 02:46:10;;;;;;;37.28;19.98;;;11.20;99.90;;;;;;5097593;28;20075;-67
2022/10/24 02:48:42;;;;;;;33.72;19.98;;;11.20;99.90;;;;;;5097537;28;20036;-66
2022/10/24 02:51:10;;;;;;;41.03;21.10;;;11.10;99.90;;;;;;5097558;28;20086;-67
2022/10/24 02:53:38;;;;;;;30.13;18.98;;;11.10;99.90;;;;;;5097372;28;20044;-66
2022/10/24 02:56:06;;;;;;;41.55;19.88;;;11.10;99.90;;;;;;5097734;28;20119;-67
2022/10/24 02:58:34;;;;;;;41.22;20.27;;;11.10;99.90;;;;;;5096600;28;20040;-68
2022/10/24 03:01:01;;;;;;;37.40;21.05;;;11.10;99.90;;;;;;5098177;28;20052;-66
2022/10/24 03:03:28;;;;;;;41.17;22.23;;;11.10;99.90;;;;;;5102624;28;20075;-66
2022/10/24 03:05:57;;;;;;;41.88;22.88;;;11.10;99.90;;;;;;5103069;28;20075;-67
2022/10/24 03:08:24;;;;;;;37.90;24.05;;;11.00;99.90;;;;;;5097467;28;20123;-67
2022/10/24 03:10:51;;;;;;;38.15;20.95;;;10.90;99.90;;;;;;5097056;28;20556;-66
2022/10/24 03:13:18;;;;;;;35.70;21.00;;;10.90;99.90;;;;;;5095606;28;20376;-67
2022/10/24 03:15:46;;;;;;;38.08;23.75;;;10.80;99.90;;;;;;5095338;28;20051;-67
2022/10/24 03:18:13;;;;;;;43.05;24.38;;;10.80;99.90;;;;;;5096932;28;20064;-65
2022/10/24 03:20:40;;;;;;;37.58;23.92;;;10.70;99.90;;;;;;5096272;28;20036;-67
2022/10/24 03:23:09;;;;;;;37.85;23.75;;;10.80;99.90;;;;;;5077979;28;20040;-67
2022/10/24 03:25:36;;;;;;;35.45;23.20;;;10.80;99.90;;;;;;5093401;28;20052;-69
2022/10/24 03:28:04;;;;;;;38.90;22.98;;;10.70;99.90;;;;;;5096795;28;20072;-67
2022/10/24 03:30:31;;;;;;;36.92;24.20;;;10.70;99.90;;;;;;5096517;28;20119;-67
2022/10/24 03:32:58;;;;;;;40.20;23.95;;;10.80;99.90;;;;;;5096268;28;20071;-67
2022/10/24 03:35:25;;;;;;;39.72;23.42;;;10.80;99.90;;;;;;5096016;28;20051;-66
2022/10/24 03:37:53;;;;;;;35.20;20.63;;;10.80;99.90;;;;;;5096591;28;20075;-67
2022/10/24 03:40:21;;;;;;;38.47;21.63;;;10.80;99.90;;;;;;5095420;28;20082;-66
2022/10/24 03:42:48;;;;;;;48.00;22.92;;;10.80;99.90;;;;;;5096329;28;20128;-67
2022/10/24 03:45:16;;;;;;;46.95;23.67;;;10.80;99.90;;;;;;5096079;28;20059;-67
2022/10/24 03:47:43;;;;;;;42.17;23.70;;;10.80;99.90;;;;;;5093223;28;20115;-67
2022/10/24 03:50:10;;;;;;;45.38;23.23;;;10.80;99.90;;;;;;5095882;28;20036;-67
2022/10/24 03:52:38;;;;;;;48.53;25.55;;;10.70;99.90;;;;;;5095306;28;20040;-66
2022/10/24 03:55:06;;;;;;;40.53;23.55;;;10.60;99.90;;;;;;5094727;28;20048;-69
2022/10/24 03:57:34;;;;;;;42.25;24.15;;;10.60;99.90;;;;;;5096658;28;20094;-67
2022/10/24 04:00:02;;;;;;;45.00;24.85;;;10.60;99.90;;;;;;5095858;28;20465;-67
2022/10/24 04:02:33;;;;;;;36.35;23.08;;;10.60;99.90;;;;;;5095569;28;20048;-66
2022/10/24 04:05:02;;;;;;;35.28;21.88;;;10.60;99.90;;;;;;5095577;28;20048;-67
2022/10/24 04:07:29;;;;;;;36.58;21.02;;;10.70;99.90;;;;;;5076994;28;20079;-65
2022/10/24 04:09:56;;;;;;;31.58;20.83;;;10.80;99.90;;;;;;5094388;28;20048;-66
2022/10/24 04:12:23;;;;;;;37.45;23.48;;;10.80;99.90;;;;;;5095801;28;20123;-67
2022/10/24 04:14:52;;;;;;;34.00;22.17;;;10.80;99.90;;;;;;5096197;28;20114;-66
2022/10/24 04:17:19;;;;;;;36.30;22.45;;;10.80;99.90;;;;;;5096156;28;20154;-67
2022/10/24 04:19:47;;;;;;;36.00;22.52;;;10.80;99.90;;;;;;5095909;28;20126;-68
2022/10/24 04:22:14;;;;;;;44.35;24.70;;;10.80;99.90;;;;;;5095437;28;20040;-66
2022/10/24 04:24:41;;;;;;;43.65;23.67;;;10.70;99.90;;;;;;5095116;28;20074;-67
2022/10/24 04:27:09;;;;;;;45.05;24.95;;;10.70;99.90;;;;;;5096056;28;20541;-66
2022/10/24 04:29:36;;;;;;;47.33;26.85;;;10.60;99.90;;;;;;5095925;28;20048;-67
2022/10/24 04:32:05;;;;;;;47.33;26.05;;;10.60;99.90;;;;;;5095603;28;20574;-67
2022/10/24 04:34:34;;;;;;;43.83;25.75;;;10.60;99.90;;;;;;5095785;28;20119;-66
2022/10/24 04:37:02;;;;;;;48.53;24.48;;;10.60;99.90;;;;;;5095770;28;20055;-67
2022/10/24 04:39:30;;;;;;;51.70;28.85;;;10.60;99.90;;;;;;5077747;28;20076;-66
2022/10/24 04:41:57;;;;;;;45.60;27.40;;;10.60;99.90;;;;;;5095534;28;20503;-66
2022/10/24 04:44:24;;;;;;;44.53;25.85;;;10.60;99.90;;;;;;5095191;28;20036;-67
2022/10/24 04:46:51;;;;;;;58.25;28.80;;;10.50;99.90;;;;;;5076425;28;20071;-67
2022/10/24 04:49:20;;;;;;;53.65;28.60;;;10.50;99.90;;;;;;5094791;28;20128;-66
2022/10/24 04:51:47;;;;;;;55.67;28.15;;;10.40;99.90;;;;;;5094871;28;20134;-66
2022/10/24 04:54:15;;;;;;;52.47;29.73;;;10.40;99.90;;;;;;5094853;28;20036;-67
2022/10/24 04:56:42;;;;;;;57.25;30.10;;;10.40;99.90;;;;;;5095409;28;20044;-67
2022/10/24 04:59:09;;;;;;;44.28;28.25;;;10.40;99.90;;;;;;5094529;28;20150;-67
2022/10/24 05:01:37;;;;;;;52.20;30.65;;;10.30;99.90;;;;;;5076607;28;20040;-67
2022/10/24 05:04:04;;;;;;;53.65;32.58;;;10.30;99.90;;;;;;5075609;28;20130;-67
2022/10/24 05:06:33;;;;;;;49.35;31.30;;;10.40;99.90;;;;;;5092373;28;20153;-66
2022/10/24 05:09:00;;;;;;;54.05;34.38;;;10.30;99.90;;;;;;5097769;28;20453;-66
2022/10/24 05:11:28;;;;;;;52.97;32.22;;;10.40;99.90;;;;;;5098006;28;20218;-66
2022/10/24 05:13:55;;;;;;;49.35;28.58;;;10.50;99.90;;;;;;5095674;28;20097;-66
2022/10/24 05:16:22;;;;;;;45.05;25.45;;;10.50;99.90;;;;;;5094710;28;20040;-66
2022/10/24 05:18:49;;;;;;;36.92;23.45;;;10.60;99.90;;;;;;5094736;28;20495;-66
2022/10/24 05:21:17;;;;;;;55.88;26.25;;;10.60;99.90;;;;;;5094074;28;20735;-67
2022/10/24 05:23:46;;;;;;;53.25;26.45;;;10.60;99.90;;;;;;5094538;28;20127;-66
2022/10/24 05:26:13;;;;;;;50.30;28.42;;;10.60;99.90;;;;;;5096245;28;20070;-66
2022/10/24 05:28:40;;;;;;;57.95;30.10;;;10.60;99.90;;;;;;5097078;28;20064;-67
2022/10/24 05:31:07;;;;;;;51.92;31.60;;;10.60;99.90;;;;;;5096043;28;20068;-67
2022/10/24 05:33:35;;;;;;;50.72;30.38;;;10.60;99.90;;;;;;5094333;28;20044;-67
2022/10/24 05:36:02;;;;;;;49.45;30.55;;;10.70;99.90;;;;;;5094191;28;20044;-66
2022/10/24 05:38:29;;;;;;;47.08;27.45;;;10.70;99.90;;;;;;5093700;28;20093;-67
2022/10/24 05:40:58;;;;;;;45.75;28.77;;;10.70;99.90;;;;;;5093936;28;20082;-68
2022/10/24 05:43:25;;;;;;;51.90;30.17;;;10.70;99.90;;;;;;5094208;28;20056;-67
2022/10/24 05:45:52;;;;;;;50.38;29.92;;;10.70;99.90;;;;;;5094444;28;20040;-67
2022/10/24 05:48:20;;;;;;;53.28;31.02;;;10.80;99.90;;;;;;5094749;28;20487;-67
2022/10/24 05:50:47;;;;;;;57.70;29.45;;;10.90;99.90;;;;;;5093796;28;20040;-67
2022/10/24 05:53:14;;;;;;;50.30;29.77;;;11.00;99.90;;;;;;5093523;28;20527;-66
2022/10/24 05:55:41;;;;;;;49.33;30.00;;;11.10;99.90;;;;;;5094640;28;20043;-66
2022/10/24 05:58:10;;;;;;;50.38;30.27;;;11.10;99.90;;;;;;5078045;28;20047;-67
2022/10/24 06:00:37;;;;;;;49.10;31.70;;;11.20;99.90;;;;;;5098565;28;20044;-66
2022/10/24 06:03:04;;;;;;;57.70;33.22;;;11.20;99.90;;;;;;5075347;28;20070;-67
2022/10/24 06:05:32;;;;;;;58.75;35.42;;;11.20;99.90;;;;;;5094274;28;20518;-66
2022/10/24 06:07:59;;;;;;;54.88;33.33;;;11.30;99.90;;;;;;5092436;28;20576;-66
2022/10/24 06:10:26;;;;;;;59.03;34.58;;;11.40;99.90;;;;;;5091854;28;20077;-67
2022/10/24 06:12:53;;;;;;;55.53;32.00;;;11.50;99.90;;;;;;5074651;28;20103;-66
2022/10/24 06:15:22;;;;;;;50.80;30.63;;;11.60;99.90;;;;;;5095708;28;20059;-66
2022/10/24 06:17:49;;;;;;;55.65;30.70;;;11.60;99.90;;;;;;5094376;28;20123;-67
2022/10/24 06:20:17;;;;;;;49.47;31.92;;;11.80;99.90;;;;;;5093730;28;20058;-66
2022/10/24 06:22:45;;;;;;;55.47;33.38;;;11.80;99.90;;;;;;5093494;28;20097;-66
2022/10/24 06:25:12;;;;;;;45.47;29.55;;;11.90;99.90;;;;;;5094001;28;20145;-67
2022/10/24 06:27:40;;;;;;;46.35;27.65;;;12.10;99.90;;;;;;5093512;28;20380;-67
2022/10/24 06:30:10;;;;;;;44.92;28.20;;;12.40;99.90;;;;;;5093138;28;20040;-66
2022/10/24 06:32:39;;;;;;;46.28;28.48;;;12.60;99.90;;;;;;5091676;28;20051;-67
2022/10/24 06:35:10;;;;;;;45.17;27.73;;;12.90;99.90;;;;;;5095153;28;20117;-67
2022/10/24 06:37:37;;;;;;;49.55;29.15;;;13.20;99.90;;;;;;5094716;28;20052;-67
2022/10/24 06:40:05;;;;;;;52.60;27.13;;;13.40;99.90;;;;;;5095985;28;20464;-66
2022/10/24 06:42:32;;;;;;;48.63;30.00;;;13.60;99.90;;;;;;5076081;28;20412;-67
2022/10/24 06:45:00;;;;;;;53.33;31.33;;;13.70;99.90;;;;;;5095135;28;20127;-66
2022/10/24 06:47:27;;;;;;;44.50;28.83;;;13.80;99.90;;;;;;5095893;28;20123;-67
2022/10/24 06:49:56;;;;;;;52.90;32.28;;;13.80;99.90;;;;;;5096815;28;20152;-66
2022/10/24 06:52:23;;;;;;;51.00;29.17;;;13.70;99.90;;;;;;5093675;28;20062;-66
2022/10/24 06:54:50;;;;;;;47.00;28.20;;;13.70;99.90;;;;;;5093537;28;20117;-66
2022/10/24 06:57:18;;;;;;;56.40;28.95;;;13.80;99.90;;;;;;5093388;28;20060;-67
2022/10/24 06:59:45;;;;;;;46.42;27.98;;;13.80;99.90;;;;;;5093234;28;20119;-67
2022/10/24 07:02:14;;;;;;;42.17;26.45;;;13.90;99.90;;;;;;5092747;28;20059;-66
2022/10/24 07:04:41;;;;;;;45.35;27.58;;;14.00;99.90;;;;;;5092933;28;20048;-66
2022/10/24 07:07:14;;;;;;;46.75;28.45;;;14.10;99.90;;;;;;5093145;28;20549;-66
2022/10/24 07:09:41;;;;;;;63.33;30.30;;;14.20;99.90;;;;;;5093263;28;20040;-67
2022/10/24 07:12:09;;;;;;;51.60;27.70;;;14.40;99.90;;;;;;5093633;28;20044;-66
2022/10/24 07:14:36;;;;;;;45.38;27.15;;;14.50;99.90;;;;;;5074673;28;20411;-66
2022/10/24 07:17:04;;;;;;;43.13;24.67;;;14.70;99.90;;;;;;5093122;28;20109;-66
2022/10/24 07:19:31;;;;;;;39.08;25.60;;;14.90;99.90;;;;;;5092701;28;20093;-68
2022/10/24 07:21:58;;;;;;;39.72;24.70;;;15.10;99.90;;;;;;5093173;28;20044;-66
2022/10/24 07:24:27;;;;;;;39.92;24.02;;;15.20;99.90;;;;;;5092889;28;20055;-66
2022/10/24 07:26:54;;;;;;;36.30;22.65;;;15.30;99.90;;;;;;5093421;28;20047;-68
2022/10/24 07:29:21;;;;;;;35.45;21.40;;;15.40;99.90;;;;;;5093301;28;20514;-67
2022/10/24 07:31:49;;;;;;;35.97;23.20;;;15.60;99.90;;;;;;5096069;28;20135;-66
2022/10/24 07:34:16;;;;;;;37.17;23.02;;;15.70;99.90;;;;;;5029668;22;20077;-68
2022/10/24 07:36:43;;;;;;;36.85;23.20;;;15.80;99.90;;;;;;4995927;28;20542;-69
2022/10/24 07:39:11;;;;;;;34.67;22.25;;;15.80;99.90;;;;;;4996879;28;20451;-67
2022/10/24 07:41:41;;;;;;;32.90;21.85;;;15.80;99.90;;;;;;4997194;28;20050;-67
2022/10/24 07:44:09;;;;;;;38.72;23.45;;;15.90;99.90;;;;;;4978562;28;20069;-68
2022/10/24 07:46:37;;;;;;;42.92;23.30;;;16.00;99.90;;;;;;4983594;28;20049;-70
2022/10/24 07:49:04;;;;;;;33.20;21.13;;;16.10;99.90;;;;;;5006517;28;20064;-71
2022/10/24 07:51:32;;;;;;;37.25;21.73;;;16.30;99.90;;;;;;5009742;28;20072;-69
2022/10/24 07:54:01;;;;;;;34.70;20.58;;;16.70;99.90;;;;;;4991483;28;20562;-71
2022/10/24 07:56:29;;;;;;;35.53;21.08;;;16.90;99.90;;;;;;5011807;28;20050;-68
2022/10/24 07:58:59;;;;;;;37.90;19.65;;;17.20;99.90;;;;;;5014815;28;20085;-70
2022/10/24 08:01:29;;;;;;;38.50;20.83;;;17.20;99.90;;;;;;5011693;28;20050;-71
2022/10/24 08:03:57;;;;;;;35.63;19.30;;;17.30;99.90;;;;;;5010733;28;20049;-71
2022/10/24 08:06:28;;;;;;;38.15;20.02;;;17.40;99.90;;;;;;4994058;28;20051;-70
2022/10/24 08:08:55;;;;;;;34.08;18.40;;;17.50;99.90;;;;;;4980799;28;20074;-69
2022/10/24 08:11:24;;;;;;;34.30;16.70;;;17.80;99.90;;;;;;4979438;28;20051;-71
2022/10/24 08:13:53;;;;;;;41.10;20.13;;;18.00;99.90;;;;;;4959480;28;20038;-71
2022/10/24 08:16:23;;;;;;;34.83;19.77;;;18.20;99.90;;;;;;4959788;28;20066;-70
2022/10/24 08:18:51;;;;;;;39.90;19.25;;;18.30;99.90;;;;;;4975007;28;20047;-70
2022/10/24 08:21:20;;;;;;;35.30;15.77;;;18.30;99.90;;;;;;4960754;28;20082;-71
2022/10/24 08:23:50;;;;;;;30.90;15.05;;;18.30;99.90;;;;;;4977902;28;20071;-70
2022/10/24 08:26:20;;;;;;;35.58;15.68;;;18.30;99.90;;;;;;4961688;28;20066;-67
2022/10/24 08:28:49;;;;;;;29.23;13.02;;;18.40;99.90;;;;;;4979470;28;20042;-67
2022/10/24 08:31:18;;;;;;;32.10;14.60;;;18.50;97.10;;;;;;4979505;28;20494;-67
2022/10/24 08:33:47;;;;;;;37.40;14.93;;;18.70;1.00;;;;;;5031979;28;20074;-67
2022/10/24 08:36:18;;;;;;;29.42;14.38;;;19.00;99.90;;;;;;5000345;28;20076;-67
2022/10/24 08:38:46;;;;;;;34.22;15.82;;;19.10;99.90;;;;;;4995490;28;20066;-68
2022/10/24 08:41:20;;;;;;;30.20;14.55;;;19.10;99.90;;;;;;4979912;28;20070;-68
2022/10/24 08:43:47;;;;;;;35.15;15.13;;;19.00;99.90;;;;;;4977003;28;20041;-67
2022/10/24 08:46:33;;;;;;;35.38;14.93;;;19.10;1.00;;;;;;4977146;28;20100;-67
2022/10/24 08:49:10;;;;;;;25.70;13.23;;;19.30;99.90;;;;;;4980755;28;20043;-67
2022/10/24 08:51:42;;;;;;;26.77;12.75;;;19.40;1.00;;;;;;4982128;28;20100;-68
2022/10/24 08:54:12;;;;;;;27.23;13.25;;;19.50;1.00;;;;;;4980931;28;20126;-67
2022/10/24 08:56:40;;;;;;;39.95;18.23;;;19.60;1.00;;;;;;4979704;28;20109;-67
2022/10/24 08:59:11;;;;;;;43.92;23.50;;;19.60;99.90;;;;;;4981365;28;20043;-68
2022/10/24 09:01:44;;;;;;;50.17;26.48;;;19.70;99.90;;;;;;4984889;28;20111;-67
2022/10/24 09:04:16;;;;;;;57.92;29.60;;;19.80;1.00;;;;;;4981499;28;20043;-67
2022/10/24 09:06:44;;;;;;;52.25;29.23;;;20.00;1.00;;;;;;4981013;28;20046;-66
2022/10/24 09:09:20;;;;;;;43.80;24.67;;;20.20;1.00;;;;;;4986291;28;20051;-67
2022/10/24 09:11:52;;;;;;;42.92;22.27;;;20.40;99.90;;;;;;4984585;28;20055;-68
2022/10/24 09:14:21;;;;;;;46.35;19.90;;;20.60;1.00;;;;;;4977209;28;20092;-68
2022/10/24 09:16:53;;;;;;;32.35;17.25;;;20.70;1.00;;;;;;4976307;28;20046;-68
2022/10/24 09:19:26;;;;;;;40.03;16.15;;;20.80;1.00;;;;;;4976563;28;20043;-67
2022/10/24 09:21:55;;;;;;;37.33;17.23;;;21.00;1.00;;;;;;4968915;28;20047;-69
2022/10/24 09:24:35;;;;;;;37.67;15.23;;;21.10;1.00;;;;;;4989470;28;20042;-68
2022/10/24 09:27:06;;;;;;;33.53;16.17;;;21.20;1.00;;;;;;4975524;28;20555;-67
2022/10/24 09:29:34;;;;;;;38.78;15.98;;;21.40;1.00;;;;;;4974584;28;20112;-67
2022/10/24 09:32:02;;;;;;;33.20;14.90;;;21.60;99.90;;;;;;4982495;28;20043;-67
2022/10/24 09:34:30;;;;;;;35.50;15.32;;;21.80;99.90;;;;;;5027116;28;20112;-67
2022/10/24 09:36:58;;;;;;;36.72;14.68;;;22.00;99.90;;;;;;4993620;28;20550;-66
2022/10/24 09:39:29;;;;;;;29.45;13.85;;;22.10;99.90;;;;;;4983664;28;20046;-68
2022/10/24 09:41:57;;;;;;;35.53;12.57;;;22.30;99.90;;;;;;4983143;28;20039;-67
2022/10/24 09:44:32;;;;;;;35.78;12.93;;;22.40;78.50;;;;;;4990317;28;20045;-68
2022/10/24 09:47:00;;;;;;;36.17;12.77;;;22.60;53.40;;;;;;4985365;28;20047;-68
2022/10/24 09:49:35;;;;;;;39.58;13.00;;;22.70;29.70;;;;;;4974963;28;20047;-68
2022/10/24 09:52:16;;;;;;;30.67;12.45;;;22.90;17.70;;;;;;4972915;28;20501;-68
2022/10/24 09:54:44;;;;;;;30.80;13.18;;;23.00;5.30;;;;;;4974271;28;20043;-67
2022/10/24 09:57:16;;;;;;;38.25;14.75;;;23.10;1.00;;;;;;4975991;28;20055;-68
2022/10/24 09:59:45;;;;;;;30.17;13.98;;;23.40;1.00;;;;;;4974042;28;20580;-66
2022/10/24 10:02:19;;;;;;;38.80;17.85;;;23.60;1.00;;;;;;4957242;28;20081;-68
2022/10/24 10:04:53;;;;;;;38.25;18.25;;;23.70;1.00;;;;;;4976302;28;20047;-68
2022/10/24 10:07:27;;;;;;;48.30;25.13;;;23.80;1.00;;;;;;4959084;28;20054;-67
2022/10/24 10:09:57;;;;;;;55.70;31.45;;;23.90;1.00;;;;;;4979480;28;20069;-68
2022/10/24 10:12:28;;;;;;;42.00;24.10;;;24.00;1.00;;;;;;4976834;28;20079;-69
2022/10/24 10:14:56;;;;;;;50.75;23.98;;;24.00;1.00;;;;;;4960526;28;20047;-67
2022/10/24 10:17:25;;;;;;;46.38;22.77;;;23.90;1.00;;;;;;4976852;28;20050;-68
2022/10/24 10:19:54;;;;;;;53.78;23.08;;;24.00;1.00;;;;;;4981045;28;20051;-68
2022/10/24 10:22:25;;;;;;;45.10;22.55;;;24.00;1.00;;;;;;4982598;28;20066;-68
2022/10/24 10:24:53;;;;;;;44.30;24.10;;;24.10;1.00;;;;;;4987482;28;20042;-70
2022/10/24 10:27:35;;;;;;;42.83;23.95;;;24.00;1.00;;;;;;4983340;28;20442;-67
2022/10/24 10:30:20;;;;;;;46.08;25.25;;;23.90;1.00;;;;;;4979335;28;20105;-67
2022/10/24 10:33:07;;;;;;;51.17;26.38;;;23.90;1.00;;;;;;5025742;28;20061;-67
2022/10/24 10:35:41;;;;;;;49.95;25.35;;;23.90;1.00;;;;;;4938882;29;20054;-68
2022/10/24 10:38:26;;;;;;;54.78;27.90;;;23.90;1.00;;;;;;4960596;28;20047;-68
2022/10/24 10:41:03;;;;;;;52.05;29.02;;;24.00;1.00;;;;;;4978582;28;20046;-67
2022/10/24 10:43:37;;;;;;;43.92;25.95;;;24.20;1.00;;;;;;4977909;28;20473;-68
2022/10/24 10:46:16;;;;;;;51.80;27.10;;;24.30;1.00;;;;;;4977772;28;20058;-68
2022/10/24 10:48:59;;;;;;;51.22;28.52;;;24.30;1.00;;;;;;4977171;28;20046;-68
2022/10/24 10:51:39;;;;;;;49.38;28.42;;;24.40;1.00;;;;;;4976602;28;20059;-68
2022/10/24 10:54:22;;;;;;;55.78;26.60;;;24.40;1.00;;;;;;4994857;28;20035;-69
2022/10/24 10:56:54;;;;;;;43.83;24.83;;;24.50;1.00;;;;;;4977409;28;20149;-68
2022/10/24 10:59:41;;;;;;;39.28;20.20;;;24.50;1.00;;;;;;4977338;28;20043;-68
2022/10/24 11:02:32;;;;;;;36.65;18.55;;;24.60;1.00;;;;;;4996957;28;20455;-68
2022/10/24 11:05:09;;;;;;;37.58;18.35;;;24.80;1.00;;;;;;4996328;28;20042;-68
2022/10/24 11:07:44;;;;;;;48.33;19.25;;;24.90;1.00;;;;;;4980250;28;20050;-68
2022/10/24 11:10:17;;;;;;;34.83;16.70;;;24.90;1.00;;;;;;4998349;28;20096;-67
2022/10/24 11:12:46;;;;;;;36.05;15.00;;;24.90;1.00;;;;;;4979249;28;20108;-68
2022/10/24 11:15:20;;;;;;;33.47;15.13;;;25.00;1.00;;;;;;4996806;28;20489;-67
2022/10/24 11:17:52;;;;;;;41.92;16.20;;;25.10;1.00;;;;;;4978774;28;20062;-67
2022/10/24 11:20:24;;;;;;;37.92;19.33;;;25.10;1.00;;;;;;4996842;28;20481;-67
2022/10/24 11:22:57;;;;;;;38.40;17.55;;;25.20;1.00;;;;;;4999358;28;20133;-68
2022/10/24 11:25:30;;;;;;;44.45;17.60;;;25.10;1.00;;;;;;4985620;28;20054;-68
2022/10/24 11:28:06;;;;;;;35.58;16.08;;;25.20;1.00;;;;;;4984586;28;20039;-68
2022/10/24 11:30:47;;;;;;;42.65;17.77;;;25.20;1.00;;;;;;4959471;28;20079;-66
2022/10/24 11:33:20;;;;;;;36.97;17.02;;;25.30;1.00;;;;;;5030883;28;20088;-68
2022/10/24 11:36:02;;;;;;;43.22;16.73;;;25.40;1.00;;;;;;5019733;28;20050;-67
2022/10/24 11:38:36;;;;;;;40.92;16.95;;;25.40;1.00;;;;;;4963586;28;20054;-68
2022/10/24 11:41:29;;;;;;;38.78;15.30;;;25.40;1.00;;;;;;4978524;28;20047;-66
2022/10/24 11:44:01;;;;;;;54.38;16.50;;;25.50;1.00;;;;;;4960409;28;20051;-67
2022/10/24 11:46:36;;;;;;;36.47;13.38;;;25.50;1.00;;;;;;4968180;28;20043;-67
2022/10/24 11:49:11;;;;;;;42.83;19.10;;;25.50;1.00;;;;;;4974015;29;20162;-68
2022/10/24 11:51:43;;;;;;;46.95;22.60;;;25.50;1.00;;;;;;4958112;28;20082;-67
2022/10/24 11:54:19;;;;;;;52.22;26.58;;;25.60;1.00;;;;;;4976745;28;20055;-67
2022/10/24 11:56:50;;;;;;;59.00;27.17;;;25.60;1.00;;;;;;4982789;28;20047;-68
2022/10/24 11:59:23;;;;;;;53.65;24.88;;;25.50;1.00;;;;;;4984692;28;20058;-67
2022/10/24 12:02:28;;;;;;;56.42;28.25;;;25.50;1.00;;;;;;4980953;28;20069;-68
2022/10/24 12:05:26;;;;;;;61.05;29.88;;;25.40;1.00;;;;;;4995846;28;20126;-68
2022/10/24 12:08:16;;;;;;;56.75;30.25;;;25.50;1.00;;;;;;4968079;28;20058;-67
2022/10/24 12:11:10;;;;;;;62.63;28.05;;;25.50;1.00;;;;;;4965273;28;20039;-67
2022/10/24 12:13:52;;;;;;;55.75;28.45;;;25.60;1.00;;;;;;4978996;28;20057;-67
2022/10/24 12:16:33;;;;;;;56.35;27.30;;;25.70;1.00;;;;;;4975365;28;20043;-68
2022/10/24 12:19:04;;;;;;;48.13;22.83;;;25.70;1.00;;;;;;4975126;28;20074;-68
2022/10/24 12:21:39;;;;;;;60.47;25.35;;;25.60;1.00;;;;;;4976042;28;20066;-68
2022/10/24 12:24:20;;;;;;;63.22;27.25;;;25.70;1.00;;;;;;4974348;28;20039;-67
2022/10/24 12:26:57;;;;;;;63.38;31.17;;;25.70;1.00;;;;;;4974423;28;20046;-68
2022/10/24 12:29:26;;;;;;;60.47;27.88;;;25.70;1.00;;;;;;4975314;28;20100;-69
2022/10/24 12:31:53;;;;;;;65.45;26.42;;;25.70;1.00;;;;;;4964202;28;20042;-68
2022/10/24 12:34:43;;;;;;;52.47;25.98;;;25.70;1.00;;;;;;5031631;28;20162;-68
2022/10/24 12:37:30;;;;;;;50.67;26.10;;;25.60;1.00;;;;;;4955757;28;20052;-67
2022/10/24 12:39:58;;;;;;;47.33;25.60;;;25.60;1.00;;;;;;4975017;28;20095;-67
2022/10/24 12:43:12;;;;;;;55.95;26.67;;;25.40;1.00;;;;;;4976668;28;20089;-68
2022/10/24 12:45:39;;;;;;;48.10;24.60;;;25.40;1.00;;;;;;4959281;28;20086;-67
2022/10/24 12:48:30;;;;;;;54.10;27.65;;;25.30;1.00;;;;;;4980609;28;20486;-67
2022/10/24 12:51:25;;;;;;;54.80;24.65;;;25.30;1.00;;;;;;4969442;28;20061;-68